Fugaku Maru — JH3428 — position and weather

sailwx.info

Track history (hours):
 
Tides and Currents Weather Stations Pressure Air Temp Water Temp Dewpoint Dewpoint Depression Visibility Wind Speed Wind Dir Waves Ship Positions

Fugaku Maru

Last reported at 2014-Jul-30 01:32 UTC. Time now 2014-Jul-30 17:14 UTC.
Position N 36°11' E 141°04'.

Length 165 m; draft 7.2 m.

Type: Cargo ship. MMSI: 431200176.

Date/timePositionNaut miles runAvg speedWind from/ knotsBaromVisibWave heightAir tempDewpointWater temp
2014-Jul-30 01:32N 36°11' E 141°04'2719.8
2014-Jul-30 00:09N 35°44' E 141°00'1220.4
2014-Jul-29 23:33N 35°33' E 140°54'2121.2
2014-Jul-29 22:33N 35°16' E 140°39'2323.1
2014-Jul-29 21:33N 34°59' E 140°20'2221.7
2014-Jul-29 20:34N 34°48' E 139°57'2320.7
2014-Jul-29 19:28N 34°38' E 139°32'2219.3
2014-Jul-29 18:19N 34°30' E 139°07'4120.0
2014-Jul-29 16:17N 34°28' E 138°18'5 0.3
2014-Jul-28 23:24N 34°29' E 138°12'4220.9
2014-Jul-28 21:24N 34°30' E 139°03'1921.8
2014-Jul-28 20:32N 34°37' E 139°24'2020.5
2014-Jul-28 19:34N 34°45' E 139°46'1918.7
2014-Jul-28 18:33N 34°53' E 140°07'1818.4
2014-Jul-28 17:33N 35°02' E 140°27'1818.0
2014-Jul-28 16:33N 35°17' E 140°39'2121.0
2014-Jul-28 15:33N 35°35' E 140°54'2020.6
2014-Jul-28 14:33N 35°54' E 141°03'2121.3
2014-Jul-28 13:33N 36°14' E 141°08'2321.4
2014-Jul-28 12:28N 36°37' E 141°13'  
2014-Jul-26 02:15N 36°53' E 141°08'2119.8
2014-Jul-26 01:11N 36°32' E 141°03'1320.4
2014-Jul-26 00:33N 36°19' E 141°01'1919.4
2014-Jul-25 23:33N 35°60' E 141°03'2020.0
2014-Jul-25 22:33N 35°40' E 140°60'2020.1
2014-Jul-25 21:33N 35°24' E 140°45'2221.6
2014-Jul-25 20:32N 35°05' E 140°30'2323.3
2014-Jul-25 19:34N 34°53' E 140°08'2323.0
2014-Jul-25 18:34N 34°42' E 139°42'2521.3
2014-Jul-25 17:24N 34°33' E 139°15'2620.1
2014-Jul-25 16:08N 34°27' E 138°44'18 1.0
2014-Jul-24 21:33N 34°31' E 139°05'1919.2
2014-Jul-24 20:33N 34°38' E 139°27'1919.2
2014-Jul-24 19:33N 34°45' E 139°49'1818.0
2014-Jul-24 18:33N 34°53' E 140°09'1818.1
2014-Jul-24 17:33N 35°02' E 140°27'1919.3
2014-Jul-24 16:33N 35°18' E 140°42'2121.0
2014-Jul-24 15:33N 35°36' E 140°55'2120.8
2014-Jul-24 14:33N 35°55' E 141°03'2121.1
2014-Jul-24 13:33N 36°16' E 141°07'2120.7
2014-Jul-24 12:33N 36°37' E 141°11'2121.1
2014-Jul-24 11:33N 36°57' E 141°17'  
2014-Jul-21 23:09N 35°43' E 141°03'1419.5
2014-Jul-21 22:27N 35°32' E 140°53'1920.6
2014-Jul-21 21:32N 35°17' E 140°40'2120.6
2014-Jul-21 20:32N 35°01' E 140°23'521.9
2014-Jul-21 20:18N 34°58' E 140°18'1722.9
2014-Jul-21 19:33N 34°49' E 140°01'2322.5
2014-Jul-21 18:33N 34°40' E 139°35'62 3.4
2014-Jul-21 00:05N 34°29' E 138°21'1120.9
2014-Jul-20 23:33N 34°30' E 138°35'3718.2
2014-Jul-20 21:30N 34°35' E 139°20'1718.0
2014-Jul-20 20:33N 34°41' E 139°39'1818.5
2014-Jul-20 19:33N 34°49' E 139°60'2119.5
2014-Jul-20 18:29N 34°60' E 140°21'1920.0
2014-Jul-20 17:32N 35°14' E 140°37'2020.6
2014-Jul-20 16:33N 35°30' E 140°52'2219.7
2014-Jul-20 15:25N 35°50' E 141°03'2320.4
2014-Jul-20 14:17N 36°13' E 141°08'  
Track history (hours):
 
Tides and Currents Weather Stations Pressure Air Temp Water Temp Dewpoint Dewpoint Depression Visibility Wind Speed Wind Dir Waves Ship Positions

Fugaku Maru

Last reported at 2014-Jul-30 01:32 UTC. Time now 2014-Jul-30 17:14 UTC.
Position N 36°11' E 141°04'.

Length 165 m; draft 7.2 m.

Type: Cargo ship. MMSI: 431200176.

Date/timePositionNaut miles runAvg speedWind from/ knotsBaromVisibWave heightAir tempDewpointWater temp
2014-Jul-30 01:32N 36°11' E 141°04'2719.8
2014-Jul-30 00:09N 35°44' E 141°00'1220.4
2014-Jul-29 23:33N 35°33' E 140°54'2121.2
2014-Jul-29 22:33N 35°16' E 140°39'2323.1
2014-Jul-29 21:33N 34°59' E 140°20'2221.7
2014-Jul-29 20:34N 34°48' E 139°57'2320.7
2014-Jul-29 19:28N 34°38' E 139°32'2219.3
2014-Jul-29 18:19N 34°30' E 139°07'4120.0
2014-Jul-29 16:17N 34°28' E 138°18'5 0.3
2014-Jul-28 23:24N 34°29' E 138°12'4220.9
2014-Jul-28 21:24N 34°30' E 139°03'1921.8
2014-Jul-28 20:32N 34°37' E 139°24'2020.5
2014-Jul-28 19:34N 34°45' E 139°46'1918.7
2014-Jul-28 18:33N 34°53' E 140°07'1818.4
2014-Jul-28 17:33N 35°02' E 140°27'1818.0
2014-Jul-28 16:33N 35°17' E 140°39'2121.0
2014-Jul-28 15:33N 35°35' E 140°54'2020.6
2014-Jul-28 14:33N 35°54' E 141°03'2121.3
2014-Jul-28 13:33N 36°14' E 141°08'2321.4
2014-Jul-28 12:28N 36°37' E 141°13'  
2014-Jul-26 02:15N 36°53' E 141°08'2119.8
2014-Jul-26 01:11N 36°32' E 141°03'1320.4
2014-Jul-26 00:33N 36°19' E 141°01'1919.4
2014-Jul-25 23:33N 35°60' E 141°03'2020.0
2014-Jul-25 22:33N 35°40' E 140°60'2020.1
2014-Jul-25 21:33N 35°24' E 140°45'2221.6
2014-Jul-25 20:32N 35°05' E 140°30'2323.3
2014-Jul-25 19:34N 34°53' E 140°08'2323.0
2014-Jul-25 18:34N 34°42' E 139°42'2521.3
2014-Jul-25 17:24N 34°33' E 139°15'2620.1
2014-Jul-25 16:08N 34°27' E 138°44'18 1.0
2014-Jul-24 21:33N 34°31' E 139°05'1919.2
2014-Jul-24 20:33N 34°38' E 139°27'1919.2
2014-Jul-24 19:33N 34°45' E 139°49'1818.0
2014-Jul-24 18:33N 34°53' E 140°09'1818.1
2014-Jul-24 17:33N 35°02' E 140°27'1919.3
2014-Jul-24 16:33N 35°18' E 140°42'2121.0
2014-Jul-24 15:33N 35°36' E 140°55'2120.8
2014-Jul-24 14:33N 35°55' E 141°03'2121.1
2014-Jul-24 13:33N 36°16' E 141°07'2120.7
2014-Jul-24 12:33N 36°37' E 141°11'2121.1
2014-Jul-24 11:33N 36°57' E 141°17'  
2014-Jul-21 23:09N 35°43' E 141°03'1419.5
2014-Jul-21 22:27N 35°32' E 140°53'1920.6
2014-Jul-21 21:32N 35°17' E 140°40'2120.6
2014-Jul-21 20:32N 35°01' E 140°23'521.9
2014-Jul-21 20:18N 34°58' E 140°18'1722.9
2014-Jul-21 19:33N 34°49' E 140°01'2322.5
2014-Jul-21 18:33N 34°40' E 139°35'62 3.4
2014-Jul-21 00:05N 34°29' E 138°21'1120.9
2014-Jul-20 23:33N 34°30' E 138°35'3718.2
2014-Jul-20 21:30N 34°35' E 139°20'1718.0
2014-Jul-20 20:33N 34°41' E 139°39'1818.5
2014-Jul-20 19:33N 34°49' E 139°60'2119.5
2014-Jul-20 18:29N 34°60' E 140°21'1920.0
2014-Jul-20 17:32N 35°14' E 140°37'2020.6
2014-Jul-20 16:33N 35°30' E 140°52'2219.7
2014-Jul-20 15:25N 35°50' E 141°03'2320.4
2014-Jul-20 14:17N 36°13' E 141°08'  

Dump ship's entire track history